Time;durP1;ratioP1;P1;durP2;ratioP2;P2;SDS_P1;SDS_P2;PMS_P1;PMS_P2;Temp;Humidity;BMP_temperature;BMP_pressure;BME280_temperature;BME280_humidity;BME280_pressure;Samples;Min_cycle;Max_cycle;Signal;HPM_P1;HPM_P2
2023/06/16 00:01:15;;;;;;;5.72;3.67;;;15.40;99.90;;;;;;4932118;29;20559;-83
2023/06/16 00:06:47;;;;;;;5.35;3.75;;;;;;;;;;4951405;29;20050;-83
2023/06/16 00:10:05;;;;;;;4.93;3.88;;;15.10;99.90;;;;;;4959549;29;20063;-82
2023/06/16 00:12:31;;;;;;;4.28;3.80;;;;;;;;;;4928983;29;20023;-83
2023/06/16 00:14:57;;;;;;;6.80;3.80;;;;;;;;;;4960901;29;20020;-83
2023/06/16 00:17:26;;;;;;;7.30;3.85;;;;;;;;;;4966111;28;20035;-82
2023/06/16 00:32:56;;;;;;;10.73;4.32;;;14.80;99.90;;;;;;5524803;23;20085;-83
2023/06/16 00:39:12;;;;;;;6.82;3.70;;;14.80;99.90;;;;;;4960234;29;20026;-84
2023/06/16 00:42:22;;;;;;;4.75;3.20;;;14.90;99.90;;;;;;4944318;29;20015;-83
2023/06/16 00:44:48;;;;;;;5.00;3.50;;;;;;;;;;4960526;29;20023;-83
2023/06/16 00:47:14;;;;;;;3.78;3.40;;;;;;;;;;4959934;29;20027;-82
2023/06/16 00:49:40;;;;;;;4.80;3.50;;;14.80;99.90;;;;;;4956346;29;20032;-83
2023/06/16 00:55:48;;;;;;;2.97;2.72;;;14.80;99.90;;;;;;4953460;29;20043;-82
2023/06/16 00:58:18;;;;;;;4.20;3.33;;;14.70;99.90;;;;;;4957135;29;20039;-81
2023/06/16 01:00:46;;;;;;;5.78;3.47;;;14.70;99.90;;;;;;4957788;29;20015;-82
2023/06/16 01:03:13;;;;;;;3.53;3.22;;;14.60;99.90;;;;;;4957589;29;20023;-81
2023/06/16 01:05:40;;;;;;;7.43;3.60;;;;;;;;;;4958451;29;20008;-83
2023/06/16 01:08:16;;;;;;;4.50;3.35;;;14.40;99.90;;;;;;4959388;29;20043;-82
2023/06/16 01:14:01;;;;;;;4.47;3.78;;;14.30;99.90;;;;;;5712528;23;20108;-84
2023/06/16 01:22:23;;;;;;;4.05;3.55;;;14.30;99.90;;;;;;5935407;23;20022;-82
2023/06/16 01:44:34;;;;;;;4.82;3.60;;;14.30;99.90;;;;;;5447192;23;20235;31
2023/06/16 01:46:59;;;;;;;7.38;3.22;;;14.30;99.90;;;;;;4899391;29;20049;-82
2023/06/16 01:49:25;;;;;;;8.52;4.15;;;14.30;99.90;;;;;;4900133;29;20018;-82
2023/06/16 01:51:51;;;;;;;5.97;3.40;;;14.10;99.90;;;;;;4901115;29;20074;-82
2023/06/16 01:54:16;;;;;;;5.03;3.67;;;14.10;99.90;;;;;;4918853;29;20029;-81
2023/06/16 01:56:42;;;;;;;3.80;2.92;;;14.10;99.90;;;;;;4919028;29;20097;-82
2023/06/16 01:59:08;;;;;;;3.63;3.28;;;14.00;99.90;;;;;;4903889;29;20029;-82
2023/06/16 02:01:42;;;;;;;6.38;3.22;;;14.00;99.90;;;;;;4904236;29;20055;-82
2023/06/16 02:04:17;;;;;;;5.95;3.17;;;14.10;99.90;;;;;;4903439;29;20020;-82
2023/06/16 02:07:07;;;;;;;4.35;3.00;;;14.10;99.90;;;;;;4904129;29;20017;-82
2023/06/16 02:09:38;;;;;;;3.45;2.70;;;14.10;99.90;;;;;;4905907;29;20048;-82
2023/06/16 02:12:05;;;;;;;3.10;2.55;;;14.10;99.90;;;;;;4905255;29;20024;-82
2023/06/16 02:14:35;;;;;;;3.22;2.92;;;14.10;99.90;;;;;;4905313;29;20035;-82
2023/06/16 02:17:03;;;;;;;;;;;14.10;99.90;;;;;;4907163;29;20033;-83
2023/06/16 02:19:31;;;;;;;3.10;2.90;;;;;;;;;;4906190;29;19955;-83
2023/06/16 02:34:56;;;;;;;4.55;4.10;;;14.30;99.90;;;;;;5959280;23;20217;-82
2023/06/16 02:37:25;;;;;;;4.93;2.72;;;14.30;99.90;;;;;;4960905;29;20043;-82
2023/06/16 02:39:51;;;;;;;4.20;3.47;;;;;;;;;;4961929;29;20023;-82
2023/06/16 02:42:17;;;;;;;3.28;2.97;;;;;;;;;;4960177;29;20020;-82
2023/06/16 02:44:43;;;;;;;3.15;2.63;;;;;;;;;;4960357;29;20011;-82
2023/06/16 02:47:31;;;;;;;3.88;3.20;;;;;;;;;;4961705;29;20036;-83
2023/06/16 02:49:57;;;;;;;3.30;3.00;;;;;;;;;;4961619;29;20087;-82
2023/06/16 02:52:23;;;;;;;3.63;3.33;;;;;;;;;;4961368;29;20046;-82
2023/06/16 02:54:49;;;;;;;3.70;3.10;;;;;;;;;;4961903;29;20027;-82
2023/06/16 02:57:15;;;;;;;4.70;3.67;;;;;;;;;;4962216;29;20020;-83
2023/06/16 02:59:41;;;;;;;4.10;3.42;;;;;;;;;;4961585;29;20027;-82
2023/06/16 03:02:07;;;;;;;4.90;2.97;;;;;;;;;;4960873;29;20016;-83
2023/06/16 03:04:34;;;;;;;3.53;3.22;;;;;;;;;;4962019;29;20016;-83
2023/06/16 03:07:04;;;;;;;3.95;3.55;;;13.60;99.90;;;;;;4962215;29;20099;-83
2023/06/16 03:09:30;;;;;;;4.95;3.88;;;;;;;;;;4962315;29;20035;-84
2023/06/16 03:11:56;;;;;;;4.10;3.78;;;;;;;;;;4962085;29;20011;-82
2023/06/16 03:14:23;;;;;;;3.08;2.85;;;;;;;;;;4946568;29;20020;-84
2023/06/16 03:16:50;;;;;;;4.43;3.13;;;;;;;;;;4962404;29;20019;-83
2023/06/16 03:27:36;;;;;;;3.60;3.33;;;13.40;99.90;;;;;;5952884;23;20071;-80
2023/06/16 03:30:02;;;;;;;5.50;3.38;;;;;;;;;;4925685;29;20052;-82
2023/06/16 03:32:28;;;;;;;3.63;3.00;;;;;;;;;;4942651;29;20012;-81
2023/06/16 03:35:14;;;;;;;3.85;3.42;;;;;;;;;;4937454;28;20044;-81
2023/06/16 03:37:40;;;;;;;5.82;3.20;;;;;;;;;;4936676;29;20036;-82
2023/06/16 03:40:07;;;;;;;4.60;3.03;;;;;;;;;;4937920;29;20032;-82
2023/06/16 03:42:33;;;;;;;12.43;4.43;;;;;;;;;;4937724;29;20054;-81
2023/06/16 03:44:59;;;;;;;5.03;3.38;;;;;;;;;;4941500;29;20096;-82
2023/06/16 04:46:06;;;;;;;4.53;3.20;;;14.00;99.90;;;;;;5661260;23;20055;-83
2023/06/16 04:48:32;;;;;;;4.25;3.72;;;14.10;99.90;;;;;;4934813;29;20028;-83
2023/06/16 04:50:58;;;;;;;3.60;3.28;;;14.30;99.90;;;;;;4916502;29;20031;-84
2023/06/16 04:53:23;;;;;;;7.32;3.67;;;14.70;99.90;;;;;;4931563;29;20060;-83
2023/06/16 04:55:49;;;;;;;3.63;3.33;;;15.40;99.90;;;;;;4931136;29;20036;-83
2023/06/16 04:58:15;;;;;;;4.43;3.67;;;15.90;99.90;;;;;;4931115;29;20115;-83
2023/06/16 05:00:40;;;;;;;3.83;3.03;;;16.00;99.90;;;;;;4931261;29;20265;-83
2023/06/16 05:03:06;;;;;;;3.60;3.05;;;16.00;99.90;;;;;;4931345;29;20078;-85
2023/06/16 05:05:32;;;;;;;3.88;3.58;;;16.00;99.90;;;;;;4931540;29;20083;-84
2023/06/16 05:07:58;;;;;;;3.35;3.05;;;15.80;99.90;;;;;;4915537;29;20027;-84
2023/06/16 05:10:24;;;;;;;3.95;3.60;;;15.80;99.90;;;;;;4915687;29;20035;-84
2023/06/16 05:12:49;;;;;;;3.72;3.35;;;15.50;99.90;;;;;;4931857;29;20036;-85
2023/06/16 05:15:15;;;;;;;4.55;3.28;;;15.40;99.90;;;;;;4919355;29;20032;-84
2023/06/16 05:17:41;;;;;;;4.03;3.30;;;15.40;99.90;;;;;;4912507;29;20125;-85
2023/06/16 05:25:47;;;;;;;3.38;3.10;;;16.10;99.90;;;;;;5305224;23;20538;-85
2023/06/16 05:28:13;;;;;;;5.85;3.70;;;16.10;99.90;;;;;;4921534;29;20034;-83
2023/06/16 05:30:38;;;;;;;10.65;4.78;;;16.10;99.90;;;;;;4938052;29;20103;-84
2023/06/16 05:33:04;;;;;;;4.18;3.70;;;16.10;99.90;;;;;;4921585;29;20055;-84
2023/06/16 05:35:29;;;;;;;3.58;3.25;;;16.10;99.90;;;;;;4921677;29;20036;-85
2023/06/16 05:37:55;;;;;;;9.57;3.28;;;16.30;99.90;;;;;;4921684;29;20477;-84
2023/06/16 05:40:21;;;;;;;5.20;3.85;;;16.40;99.90;;;;;;4921798;29;20024;-83
2023/06/16 05:42:46;;;;;;;3.60;3.03;;;16.50;99.90;;;;;;4922430;29;20028;-83
2023/06/16 05:45:12;;;;;;;6.35;4.05;;;16.70;99.90;;;;;;4922507;29;20028;-80
2023/06/16 05:47:37;;;;;;;5.43;3.40;;;16.80;99.90;;;;;;4936509;29;20122;-80
2023/06/16 05:50:03;;;;;;;9.57;5.90;;;16.90;99.90;;;;;;4937841;29;20059;-80
2023/06/16 05:52:30;;;;;;;4.50;3.83;;;17.10;99.90;;;;;;4935820;29;20027;-80
2023/06/16 05:54:57;;;;;;;7.40;5.10;;;17.20;99.90;;;;;;4936535;29;20023;-76
2023/06/16 05:57:23;;;;;;;4.78;4.28;;;17.50;99.90;;;;;;4942192;29;20075;-84
2023/06/16 05:59:49;;;;;;;7.00;4.10;;;17.60;99.90;;;;;;4935950;29;20470;-85
2023/06/16 06:02:16;;;;;;;7.50;4.30;;;17.60;99.90;;;;;;4921770;29;20063;-87
2023/06/16 06:04:42;;;;;;;6.53;4.65;;;17.90;99.90;;;;;;4900727;29;20036;-82
2023/06/16 06:07:08;;;;;;;7.07;4.55;;;18.30;99.90;;;;;;4900207;29;20072;-87
2023/06/16 06:09:34;;;;;;;6.35;3.97;;;18.80;99.90;;;;;;4917525;29;20047;-85
2023/06/16 06:12:00;;;;;;;10.52;5.20;;;18.80;99.90;;;;;;4916041;29;20504;-90
2023/06/16 06:14:26;;;;;;;8.55;5.15;;;18.90;99.90;;;;;;4900637;29;20477;-88
2023/06/16 06:17:39;;;;;;;4.93;4.43;;;19.60;99.50;;;;;;4925222;29;20048;-83
2023/06/16 06:20:12;;;;;;;4.97;4.30;;;19.50;99.60;;;;;;4917750;29;20044;-84
2023/06/16 06:22:38;;;;;;;10.48;4.90;;;;;;;;;;4935883;29;20409;-85
2023/06/16 06:25:04;;;;;;;9.40;5.53;;;20.50;95.00;;;;;;4936820;29;20056;-85
2023/06/16 06:27:30;;;;;;;6.05;5.13;;;20.70;93.80;;;;;;4920745;29;20095;-84
2023/06/16 06:29:56;;;;;;;11.65;6.68;;;20.70;93.00;;;;;;4920777;29;20509;-83
2023/06/16 06:32:21;;;;;;;6.43;5.30;;;20.80;93.50;;;;;;4920969;29;20417;-87
2023/06/16 06:34:47;;;;;;;5.53;4.68;;;21.00;92.20;;;;;;4920726;29;20028;-84
2023/06/16 06:37:16;;;;;;;6.70;4.53;;;21.20;91.90;;;;;;4939805;29;20028;-88
2023/06/16 06:39:42;;;;;;;8.80;5.30;;;21.30;91.00;;;;;;4918290;29;20031;-82
2023/06/16 06:42:10;;;;;;;4.82;4.13;;;21.30;90.60;;;;;;4917154;29;20453;-86
2023/06/16 06:44:35;;;;;;;14.38;5.07;;;21.50;90.90;;;;;;4918154;29;20028;-90
2023/06/16 06:47:01;;;;;;;10.98;4.35;;;21.70;90.30;;;;;;4918011;29;20035;-85
2023/06/16 06:49:27;;;;;;;5.72;4.20;;;;;;;;;;4917938;29;20035;-85
2023/06/16 06:51:53;;;;;;;12.07;5.00;;;22.80;85.10;;;;;;4933603;29;20079;-84
2023/06/16 06:54:18;;;;;;;8.02;5.22;;;23.50;83.60;;;;;;4917502;29;20023;-85
2023/06/16 06:56:44;;;;;;;8.30;5.22;;;23.70;80.50;;;;;;4918033;29;20515;-84
2023/06/16 06:59:10;;;;;;;8.13;4.90;;;;;;;;;;4917761;29;20038;-86
2023/06/16 07:01:36;;;;;;;6.25;5.30;;;23.30;79.40;;;;;;4933415;29;20024;-87
2023/06/16 07:04:04;;;;;;;10.27;4.85;;;23.70;77.60;;;;;;4934612;29;20032;-84
2023/06/16 07:06:32;;;;;;;8.87;5.23;;;24.20;78.60;;;;;;4933186;29;20024;-81
2023/06/16 07:09:01;;;;;;;5.63;4.82;;;24.60;75.60;;;;;;4933393;29;20050;-86
2023/06/16 07:11:27;;;;;;;6.43;5.28;;;;;;;;;;4932978;29;20024;-86
2023/06/16 07:13:53;;;;;;;6.75;4.18;;;24.50;76.50;;;;;;4933300;29;20024;-84
2023/06/16 07:16:19;;;;;;;6.55;4.53;;;24.50;75.90;;;;;;4933185;29;20607;-86
2023/06/16 07:18:45;;;;;;;8.15;4.30;;;;;;;;;;4933414;29;20721;-83
2023/06/16 07:21:11;;;;;;;5.22;4.50;;;25.00;73.20;;;;;;4933650;29;20119;-86
2023/06/16 07:23:36;;;;;;;6.60;4.50;;;25.80;70.80;;;;;;4933776;29;20031;-87
2023/06/16 07:26:02;;;;;;;12.85;5.05;;;25.80;71.20;;;;;;4936272;29;20058;-79
2023/06/16 07:28:28;;;;;;;11.70;4.30;;;26.40;70.20;;;;;;4934983;29;20029;-80
2023/06/16 07:30:55;;;;;;;7.32;4.05;;;;;;;;;;4931364;29;20031;-81
2023/06/16 07:33:21;;;;;;;7.15;4.20;;;26.90;67.70;;;;;;4914359;29;20024;-80
2023/06/16 07:35:47;;;;;;;10.52;5.32;;;28.10;66.80;;;;;;4914160;29;20370;-86
2023/06/16 07:38:14;;;;;;;7.97;4.63;;;27.50;65.30;;;;;;4896252;29;20505;-87
2023/06/16 07:40:40;;;;;;;6.10;4.43;;;26.50;65.90;;;;;;4917299;29;20031;-84
2023/06/16 07:43:06;;;;;;;9.00;4.45;;;26.20;67.10;;;;;;4917229;29;20038;-85
2023/06/16 07:45:33;;;;;;;7.35;5.13;;;;;;;;;;4917318;29;20051;-87
2023/06/16 07:47:59;;;;;;;6.95;4.60;;;25.50;68.30;;;;;;4933267;29;20030;-81
2023/06/16 07:50:25;;;;;;;8.32;5.40;;;25.40;68.40;;;;;;4932511;29;20031;-89
2023/06/16 07:52:51;;;;;;;6.15;4.10;;;;;;;;;;4933888;29;20156;-78
2023/06/16 07:55:17;;;;;;;9.55;5.20;;;;;;;;;;4939148;29;20076;-81
2023/06/16 07:57:43;;;;;;;5.50;5.00;;;;;;;;;;4938510;29;20638;-80
2023/06/16 08:00:11;;;;;;;8.43;4.88;;;26.50;65.70;;;;;;4932800;29;20293;-80
2023/06/16 08:02:46;;;;;;;6.57;4.28;;;27.00;65.00;;;;;;4932653;29;20103;-80
2023/06/16 08:05:16;;;;;;;9.07;4.47;;;27.00;65.00;;;;;;4932528;29;20509;-79
2023/06/16 08:07:42;;;;;;;5.25;3.45;;;27.30;63.40;;;;;;4932430;29;20028;-84
2023/06/16 08:10:08;;;;;;;4.97;4.47;;;27.00;65.70;;;;;;4916895;29;20030;-82
2023/06/16 08:12:34;;;;;;;9.38;4.95;;;27.20;64.80;;;;;;4932181;29;20070;-80
2023/06/16 08:15:00;;;;;;;6.07;4.80;;;27.30;64.60;;;;;;4932374;29;20043;-78
2023/06/16 08:17:26;;;;;;;9.13;4.60;;;;;;;;;;4931970;29;20040;-82
2023/06/16 08:19:53;;;;;;;5.70;3.65;;;27.80;61.10;;;;;;4931671;29;20028;-83
2023/06/16 08:22:19;;;;;;;11.80;4.53;;;;;;;;;;4930885;29;20033;-87
2023/06/16 08:24:45;;;;;;;4.80;3.88;;;;;;;;;;4930248;29;20032;-83
2023/06/16 08:27:11;;;;;;;7.82;4.03;;;26.80;60.90;;;;;;4928199;29;20016;-89
2023/06/16 08:29:37;;;;;;;6.22;3.85;;;27.20;61.40;;;;;;4913773;29;20063;-83
2023/06/16 08:32:03;;;;;;;11.40;3.90;;;27.20;60.70;;;;;;4913635;29;20067;-84
2023/06/16 08:34:29;;;;;;;5.00;4.50;;;27.50;59.20;;;;;;4896304;29;20123;-81
2023/06/16 08:36:55;;;;;;;4.53;3.88;;;;;;;;;;4901376;29;20182;-83
2023/06/16 08:39:21;;;;;;;7.07;3.72;;;;;;;;;;4931963;29;20028;-83
2023/06/16 08:41:50;;;;;;;4.70;3.70;;;27.40;58.30;;;;;;4931579;29;20034;-80
2023/06/16 08:44:18;;;;;;;4.85;3.75;;;27.50;59.30;;;;;;4932323;29;20026;-77
2023/06/16 08:46:45;;;;;;;6.28;3.88;;;27.70;61.30;;;;;;4931009;29;20598;-80
2023/06/16 08:49:14;;;;;;;5.63;4.15;;;27.20;58.40;;;;;;4932495;29;20484;-84
2023/06/16 08:51:47;;;;;;;5.03;3.67;;;26.80;60.80;;;;;;4932611;29;20556;-81
2023/06/16 08:54:13;;;;;;;3.88;3.30;;;26.90;63.60;;;;;;4915612;29;20370;-80
2023/06/16 08:56:40;;;;;;;4.63;3.42;;;;;;;;;;4913647;29;20039;-84
2023/06/16 08:59:06;;;;;;;5.38;3.72;;;26.90;61.20;;;;;;4929773;29;20063;-76
2023/06/16 09:01:39;;;;;;;8.70;4.30;;;;;;;;;;4929973;29;20034;-80
2023/06/16 09:04:08;;;;;;;6.78;3.95;;;26.70;60.50;;;;;;4929356;29;20035;-79
2023/06/16 09:06:38;;;;;;;3.40;3.08;;;27.30;58.60;;;;;;4913864;29;20032;-78
2023/06/16 09:09:04;;;;;;;4.43;3.63;;;27.30;59.20;;;;;;4930131;29;20032;-77
2023/06/16 09:11:30;;;;;;;3.67;3.30;;;27.40;58.70;;;;;;4929539;29;20050;-80
2023/06/16 09:13:56;;;;;;;3.78;2.70;;;26.80;58.20;;;;;;4920059;29;20055;-80
2023/06/16 09:16:23;;;;;;;3.97;3.13;;;26.40;58.20;;;;;;4894160;29;20080;-79
2023/06/16 09:18:49;;;;;;;9.85;2.78;;;;;;;;;;4894292;29;20604;-82
2023/06/16 09:21:22;;;;;;;3.67;3.08;;;27.20;56.40;;;;;;4910726;29;20063;-80
2023/06/16 09:23:57;;;;;;;7.63;2.97;;;;;;;;;;4896031;29;20024;-79
2023/06/16 09:26:28;;;;;;;3.38;3.08;;;27.90;57.00;;;;;;4911248;29;20406;-77
2023/06/16 09:28:54;;;;;;;3.15;2.85;;;27.80;57.70;;;;;;4896161;29;20028;-78
2023/06/16 09:31:23;;;;;;;3.50;3.20;;;27.10;54.90;;;;;;4896579;29;20051;-83
2023/06/16 09:33:49;;;;;;;2.90;2.60;;;;;;;;;;4896545;29;20028;-88
2023/06/16 09:36:26;;;;;;;7.05;2.70;;;28.70;57.60;;;;;;4911958;29;20059;-83
2023/06/16 09:38:52;;;;;;;4.05;2.80;;;27.40;55.70;;;;;;4896564;29;20040;-84
2023/06/16 09:41:18;;;;;;;2.80;2.60;;;;;;;;;;4896153;29;20036;-83
2023/06/16 09:43:45;;;;;;;5.85;3.10;;;;;;;;;;4912162;29;20055;-82
2023/06/16 09:46:14;;;;;;;2.40;2.20;;;27.70;54.70;;;;;;4912406;29;20115;-83
2023/06/16 09:48:50;;;;;;;3.72;2.30;;;27.70;49.50;;;;;;4895183;29;20481;-75
2023/06/16 09:51:21;;;;;;;4.45;3.55;;;27.70;53.00;;;;;;4912276;29;20394;-75
2023/06/16 09:53:48;;;;;;;4.75;3.00;;;27.70;53.50;;;;;;4912251;29;20032;-78
2023/06/16 09:56:17;;;;;;;3.38;3.08;;;27.80;52.20;;;;;;4911845;29;20040;-77
2023/06/16 09:58:43;;;;;;;;;;;28.00;54.40;;;;;;4912548;29;20036;-78
2023/06/16 10:01:10;;;;;;;2.80;2.20;;;28.20;52.20;;;;;;4910384;29;19970;-75
2023/06/16 10:03:41;;;;;;;2.40;2.22;;;28.50;51.50;;;;;;4911889;29;20039;-78
2023/06/16 10:06:16;;;;;;;2.60;2.40;;;28.50;48.40;;;;;;4895811;29;20020;-80
2023/06/16 10:08:42;;;;;;;2.33;1.70;;;28.30;49.40;;;;;;4914513;29;20478;-80
2023/06/16 10:11:12;;;;;;;2.72;2.20;;;28.70;46.70;;;;;;4912204;29;20472;-79
2023/06/16 10:13:40;;;;;;;3.47;2.38;;;29.50;46.20;;;;;;4920671;29;20031;-79
2023/06/16 10:16:11;;;;;;;4.90;1.98;;;29.40;46.90;;;;;;4933552;29;20523;-78
2023/06/16 10:18:39;;;;;;;2.28;2.08;;;29.80;47.10;;;;;;4933369;29;20051;-78
2023/06/16 10:21:05;;;;;;;2.67;2.47;;;29.80;47.10;;;;;;4933868;29;20038;-77
2023/06/16 10:23:30;;;;;;;3.10;2.53;;;29.70;45.80;;;;;;4934865;29;20122;-78
2023/06/16 10:25:57;;;;;;;4.72;2.63;;;29.80;47.20;;;;;;4932717;29;20138;-77
2023/06/16 10:28:23;;;;;;;4.40;2.47;;;;;;;;;;4934281;29;20020;-76
2023/06/16 10:30:50;;;;;;;5.57;2.60;;;29.00;49.80;;;;;;4934471;29;20159;-77
2023/06/16 10:33:28;;;;;;;7.38;2.40;;;29.60;46.70;;;;;;4934301;29;20047;-76
2023/06/16 10:35:56;;;;;;;5.82;2.85;;;29.70;46.60;;;;;;4933180;29;20046;-79
2023/06/16 10:38:34;;;;;;;4.00;2.58;;;29.10;47.40;;;;;;4933961;29;20110;-78
2023/06/16 10:41:06;;;;;;;10.40;5.93;;;29.20;47.30;;;;;;4932549;29;20024;-79
2023/06/16 10:43:32;;;;;;;5.22;2.95;;;29.90;46.60;;;;;;4934185;29;20303;-76
2023/06/16 10:46:20;;;;;;;6.80;2.97;;;30.30;44.60;;;;;;4934273;29;20032;-77
2023/06/16 10:49:04;;;;;;;2.85;2.45;;;30.20;43.10;;;;;;4932413;29;20027;-77
2023/06/16 10:52:01;;;;;;;5.18;2.47;;;30.20;46.50;;;;;;4932657;29;20544;-76
2023/06/16 10:54:32;;;;;;;4.78;2.25;;;30.50;46.70;;;;;;4911802;29;20593;-76
2023/06/16 10:57:02;;;;;;;3.55;2.30;;;30.00;44.50;;;;;;4930150;29;20448;-76
2023/06/16 10:59:28;;;;;;;3.65;2.50;;;29.90;43.10;;;;;;4931408;29;20032;-78
2023/06/16 11:01:57;;;;;;;2.13;1.92;;;29.00;44.10;;;;;;4914026;29;20086;-79
2023/06/16 11:04:24;;;;;;;2.80;2.50;;;28.70;44.30;;;;;;4915685;29;20502;-79
2023/06/16 11:07:16;;;;;;;2.75;2.40;;;29.10;46.90;;;;;;4933497;29;20028;-78
2023/06/16 11:09:42;;;;;;;7.07;2.10;;;29.80;42.60;;;;;;4928994;29;20074;-78
2023/06/16 11:12:08;;;;;;;2.88;2.40;;;29.80;41.30;;;;;;4916015;29;20067;-80
2023/06/16 11:14:34;;;;;;;2.28;1.95;;;29.90;42.10;;;;;;4925735;29;20028;-76
2023/06/16 11:17:02;;;;;;;4.53;2.13;;;31.10;42.60;;;;;;4931870;29;20117;-76
2023/06/16 11:19:27;;;;;;;2.50;2.30;;;31.50;41.20;;;;;;4932433;29;20108;-77
2023/06/16 11:21:53;;;;;;;6.55;2.47;;;32.00;42.70;;;;;;4932626;29;20128;-75
2023/06/16 11:24:19;;;;;;;2.97;2.28;;;32.10;41.50;;;;;;4931058;29;20042;-77
2023/06/16 11:26:45;;;;;;;3.00;2.30;;;32.00;40.20;;;;;;4933186;29;20051;-77
2023/06/16 11:29:11;;;;;;;2.95;2.03;;;31.90;41.30;;;;;;4915650;29;20079;-78
2023/06/16 11:31:37;;;;;;;3.88;2.60;;;32.10;40.50;;;;;;4915261;29;20436;-77
2023/06/16 11:34:03;;;;;;;3.05;2.33;;;32.10;40.90;;;;;;4929608;29;20435;-75
2023/06/16 11:36:30;;;;;;;5.68;2.67;;;;;;;;;;4934983;29;20051;-78
2023/06/16 11:38:56;;;;;;;2.40;2.20;;;31.60;40.30;;;;;;4930136;29;20490;-76
2023/06/16 11:41:24;;;;;;;2.78;2.38;;;31.30;41.30;;;;;;4931493;29;20027;-76
2023/06/16 11:43:51;;;;;;;2.88;2.40;;;31.30;43.20;;;;;;4930606;29;20024;-79
2023/06/16 11:46:23;;;;;;;3.72;2.63;;;30.30;43.70;;;;;;4931719;29;20034;-78
2023/06/16 11:48:49;;;;;;;5.45;2.75;;;;;;;;;;4931494;29;20062;-81
2023/06/16 11:51:14;;;;;;;3.30;2.35;;;30.40;43.80;;;;;;4932895;29;20032;-75
2023/06/16 11:53:41;;;;;;;2.38;2.17;;;30.90;42.30;;;;;;4931135;29;20035;-76
2023/06/16 11:56:14;;;;;;;2.80;2.42;;;31.70;42.30;;;;;;4932236;29;20050;-78
2023/06/16 11:58:44;;;;;;;4.22;2.97;;;31.30;42.70;;;;;;4932010;29;20493;-78
2023/06/16 12:01:14;;;;;;;3.13;2.55;;;31.80;43.50;;;;;;4929818;29;20047;-75
2023/06/16 12:03:41;;;;;;;4.30;2.53;;;32.90;41.80;;;;;;4930267;29;20491;-76
2023/06/16 12:06:07;;;;;;;7.18;2.88;;;33.70;41.90;;;;;;4930576;29;20027;-75
2023/06/16 12:08:48;;;;;;;3.25;2.75;;;32.30;40.40;;;;;;4929243;29;20734;-76
2023/06/16 12:11:26;;;;;;;4.53;2.80;;;30.80;43.00;;;;;;4929059;29;20063;-76
2023/06/16 12:13:53;;;;;;;6.18;2.90;;;30.90;42.30;;;;;;4924839;29;20027;-78
2023/06/16 12:16:19;;;;;;;2.50;2.30;;;31.50;43.00;;;;;;4932582;29;20032;-79
2023/06/16 12:18:45;;;;;;;3.70;3.20;;;;;;;;;;4932163;29;20024;-81
2023/06/16 12:21:22;;;;;;;2.58;2.25;;;29.00;43.10;;;;;;4931394;29;20170;-80
2023/06/16 12:23:51;;;;;;;7.32;2.50;;;29.30;44.00;;;;;;4931563;29;20493;-79
2023/06/16 12:26:30;;;;;;;3.10;2.40;;;29.70;43.40;;;;;;4931221;29;20433;-77
2023/06/16 12:28:57;;;;;;;;;;;29.50;44.30;;;;;;4931281;29;20094;-78
2023/06/16 12:31:28;;;;;;;3.83;2.75;;;29.80;43.00;;;;;;4931223;29;19918;-80
2023/06/16 12:33:55;;;;;;;4.45;2.58;;;29.80;42.90;;;;;;4930860;29;20494;-80
2023/06/16 12:36:21;;;;;;;4.75;2.70;;;29.90;42.20;;;;;;4931040;29;20039;-80
2023/06/16 12:38:47;;;;;;;5.97;2.80;;;;;;;;;;4930922;29;20051;-80
2023/06/16 12:41:16;;;;;;;3.58;2.60;;;30.40;42.80;;;;;;4932197;29;20496;-81
2023/06/16 12:43:50;;;;;;;2.90;2.60;;;30.40;42.90;;;;;;4933023;29;20032;-80
2023/06/16 12:46:16;;;;;;;4.25;3.05;;;31.40;41.40;;;;;;4931331;29;20028;-80
2023/06/16 12:48:42;;;;;;;3.58;2.35;;;31.30;41.20;;;;;;4931322;29;20047;-78
2023/06/16 12:51:08;;;;;;;2.75;2.55;;;31.60;42.00;;;;;;4931166;29;20028;-78
2023/06/16 12:53:45;;;;;;;2.97;2.55;;;32.90;41.70;;;;;;4931127;29;20032;-78
2023/06/16 12:56:11;;;;;;;4.10;2.00;;;34.10;40.40;;;;;;4931008;29;20369;-79
2023/06/16 12:58:38;;;;;;;3.85;3.15;;;34.10;40.30;;;;;;4931470;29;20028;-78
2023/06/16 13:01:06;;;;;;;5.65;2.70;;;34.60;39.50;;;;;;4930816;29;20038;-78
2023/06/16 13:03:32;;;;;;;6.03;1.90;;;34.70;40.40;;;;;;4930552;29;20155;-80
2023/06/16 13:05:58;;;;;;;3.33;2.47;;;34.00;39.90;;;;;;4931576;29;20134;-80
2023/06/16 13:08:23;;;;;;;3.97;2.70;;;33.20;40.40;;;;;;4931231;29;20055;-83
2023/06/16 13:10:49;;;;;;;2.97;2.67;;;31.90;40.50;;;;;;4930235;29;20126;-80
2023/06/16 13:13:18;;;;;;;3.15;2.50;;;;;;;;;;4927469;29;20035;-86
2023/06/16 13:15:44;;;;;;;3.22;2.58;;;29.60;42.40;;;;;;4912329;29;20036;-83
2023/06/16 13:18:10;;;;;;;5.88;2.78;;;;;;;;;;4912003;29;20035;-81
2023/06/16 13:20:38;;;;;;;3.30;2.67;;;29.60;43.20;;;;;;4911673;29;20167;-79
2023/06/16 13:23:04;;;;;;;2.88;2.67;;;;;;;;;;4899592;29;20074;-82
2023/06/16 13:25:30;;;;;;;3.25;2.42;;;;;;;;;;4930194;29;20115;-81
2023/06/16 13:27:56;;;;;;;2.58;2.38;;;;;;;;;;4930357;29;20142;-80
2023/06/16 13:30:21;;;;;;;5.35;2.70;;;30.20;44.50;;;;;;4932198;29;20122;-81
2023/06/16 13:32:47;;;;;;;2.95;2.58;;;;;;;;;;4930771;29;20039;-79
2023/06/16 13:35:13;;;;;;;2.97;2.47;;;;;;;;;;4931253;29;20039;-82
2023/06/16 13:37:39;;;;;;;4.88;2.83;;;;;;;;;;4931410;29;20493;-79
2023/06/16 13:40:06;;;;;;;6.03;2.03;;;29.60;46.90;;;;;;4930881;29;20031;-82
2023/06/16 13:42:32;;;;;;;3.75;2.42;;;;;;;;;;4899368;29;20042;-80
2023/06/16 13:44:58;;;;;;;4.00;2.47;;;;;;;;;;4911896;29;20115;-78
2023/06/16 13:47:24;;;;;;;6.70;3.13;;;;;;;;;;4913957;29;20095;-78
2023/06/16 13:49:50;;;;;;;4.57;2.60;;;;;;;;;;4918123;29;20024;-82
2023/06/16 13:52:17;;;;;;;5.85;3.00;;;;;;;;;;4915907;29;20032;-82
2023/06/16 13:54:43;;;;;;;2.95;2.58;;;;;;;;;;4916718;29;20028;-80
2023/06/16 13:57:09;;;;;;;7.80;2.53;;;;;;;;;;4915158;29;20401;-79
2023/06/16 13:59:35;;;;;;;8.88;2.72;;;;;;;;;;4916161;29;20387;-79
2023/06/16 14:02:01;;;;;;;3.42;2.60;;;;;;;;;;4914817;29;20501;-80
2023/06/16 14:04:27;;;;;;;2.88;2.42;;;32.30;41.40;;;;;;4915223;29;20071;-78
2023/06/16 14:06:52;;;;;;;3.88;2.70;;;32.30;41.30;;;;;;4899268;29;20099;-81
2023/06/16 14:09:18;;;;;;;3.35;2.70;;;;;;;;;;4899545;29;20416;-83
2023/06/16 14:11:45;;;;;;;3.30;2.90;;;;;;;;;;4915520;29;20092;-78
2023/06/16 14:14:11;;;;;;;3.20;2.90;;;;;;;;;;4926994;29;20039;-78
2023/06/16 14:16:36;;;;;;;2.50;2.30;;;32.00;40.40;;;;;;4933167;29;20027;-78
2023/06/16 14:19:03;;;;;;;3.13;2.83;;;32.30;41.50;;;;;;4916849;29;20027;-81
2023/06/16 14:21:31;;;;;;;4.57;2.30;;;30.60;42.60;;;;;;4916790;29;20130;-78
2023/06/16 14:23:57;;;;;;;2.88;2.60;;;30.40;44.40;;;;;;4933771;29;20500;-78
2023/06/16 14:26:23;;;;;;;6.82;3.17;;;31.00;44.90;;;;;;4916344;29;20079;-79
2023/06/16 14:28:48;;;;;;;5.95;2.90;;;31.20;43.60;;;;;;4916457;29;20067;-80
2023/06/16 14:31:15;;;;;;;6.28;3.10;;;;;;;;;;4917216;29;20130;-83
2023/06/16 14:33:40;;;;;;;6.28;3.17;;;29.40;43.30;;;;;;4933363;29;20473;-79
2023/06/16 14:36:06;;;;;;;3.25;2.80;;;29.10;44.40;;;;;;4916966;29;20031;-77
2023/06/16 14:38:32;;;;;;;4.40;3.22;;;30.10;42.90;;;;;;4916798;29;20096;-77
2023/06/16 14:40:58;;;;;;;6.15;3.10;;;;;;;;;;4915348;29;20035;-77
2023/06/16 14:43:24;;;;;;;4.35;2.58;;;;;;;;;;4923272;29;20389;-79
2023/06/16 14:45:51;;;;;;;3.28;2.50;;;32.70;41.20;;;;;;4914722;29;20032;-82
2023/06/16 14:48:16;;;;;;;4.60;2.90;;;33.00;39.30;;;;;;4898338;29;20028;-78
2023/06/16 14:50:42;;;;;;;2.92;2.72;;;33.00;40.10;;;;;;4897564;29;20557;-82
2023/06/16 14:53:08;;;;;;;5.05;2.70;;;;;;;;;;4896623;29;20032;-80
2023/06/16 14:55:34;;;;;;;4.72;2.40;;;34.30;38.30;;;;;;4911259;29;20233;-80
2023/06/16 14:58:00;;;;;;;4.80;2.88;;;34.40;39.10;;;;;;4894878;29;20036;-78
2023/06/16 15:00:26;;;;;;;2.75;2.55;;;34.60;39.30;;;;;;4879235;29;20075;-78
2023/06/16 15:02:52;;;;;;;5.18;2.55;;;;;;;;;;4895386;29;20032;-81
2023/06/16 15:05:18;;;;;;;5.25;2.50;;;;;;;;;;4913667;29;20668;-86
2023/06/16 15:07:44;;;;;;;3.63;2.75;;;;;;;;;;4912762;29;20028;-90
2023/06/16 15:10:10;;;;;;;5.38;2.85;;;;;;;;;;4912981;29;20024;-86
2023/06/16 15:12:36;;;;;;;4.53;2.45;;;;;;;;;;4912939;29;20401;-84
2023/06/16 15:15:06;;;;;;;6.40;2.63;;;27.90;45.60;;;;;;4930415;29;20035;-85
2023/06/16 15:17:32;;;;;;;3.22;2.80;;;;;;;;;;4932009;29;20280;-86
2023/06/16 15:19:58;;;;;;;4.60;2.78;;;;;;;;;;4932549;29;20646;-87
2023/06/16 15:22:25;;;;;;;3.28;3.00;;;29.20;45.10;;;;;;4933486;29;20034;-87
2023/06/16 15:24:51;;;;;;;3.33;2.75;;;;;;;;;;4917180;29;20039;-88
2023/06/16 15:27:17;;;;;;;3.08;2.75;;;28.30;43.90;;;;;;4933101;29;20027;-80
2023/06/16 15:29:42;;;;;;;2.78;2.53;;;28.00;46.30;;;;;;4930910;29;20492;-80
2023/06/16 15:32:08;;;;;;;3.72;3.33;;;27.70;46.40;;;;;;4933000;29;20121;-80
2023/06/16 15:34:34;;;;;;;3.72;3.38;;;27.50;46.90;;;;;;4931537;29;20024;-78
2023/06/16 15:37:02;;;;;;;6.75;2.53;;;27.00;47.60;;;;;;4932414;29;20040;-78